Strona główna
METAR-TAF:

METAR-TAF

Lotnisko :

East Hampton Airport

East Hampton, Nowy Jork, Stany Zjednoczone

Szerokość geograficzna: 40-57-34N, Długość geograficzna: 072-15-07W, wysokość: 17 m

Aktualna obserwacja pogody

Raport powstał 22 minut temu, godzina 14:15 UTC
Wiatr 5 kt od północ
Temperatura 4°C
Wilgotność 56%
Ciśnienie 1029 hPa
Widzialność: 16.1 km
Rozproszone chmury na wysokości 11000 ft

METAR: KHTO 181415Z AUTO 01005KT 10SM SCT110 04/M04 A3039 RMK AO2 T00401040

czas: 09:37 (14:37 UTC)


TAF: brakujący

Obserwacja i prognoza pogody dla ponad 4000 lotnisk (raport METAR i TAF).

Dostępne stacje oznaczono żółtymi i czerwonymi punktami na mapie.

Najedź kursorem aby zobaczyć nazwę stacji.

Kliknij aby zobaczyć obserwacje i prognozy pogody.

Aby zmienić mapę: kliknij na zielony przycisk z czarnym krzyżykiem, aby powiększyć; na zielony przycisk z myślnikiem, aby pomniejszyć; na zielone strzałki, aby przejść do map sąsiednich.


METAR-TAF: